Time;durP1;ratioP1;P1;durP2;ratioP2;P2;SDS_P1;SDS_P2;PMS_P1;PMS_P2;Temp;Humidity;BMP_temperature;BMP_pressure;BME280_temperature;BME280_humidity;BME280_pressure;Samples;Min_cycle;Max_cycle;Signal;HPM_P1;HPM_P2
2023/12/08 00:01:18;;;;;;;;;;;;;;;;;;4936385;28;19914;-91
2023/12/08 00:03:44;;;;;;;;;;;;;;;;;;4938222;28;19989;-92
2023/12/08 00:06:10;;;;;;;;;;;;;;;;;;4941099;28;19995;-91
2023/12/08 00:08:37;;;;;;;;;;;;;;;;;;4941014;28;19976;-92
2023/12/08 00:11:03;;;;;;;;;;;;;;;;;;4943534;28;19919;-91
2023/12/08 00:13:29;;;;;;;;;;;;;;;;;;4939196;28;20009;-92
2023/12/08 00:15:55;;;;;;;;;;;;;;;;;;4937916;28;19914;-92
2023/12/08 00:18:21;;;;;;;;;;;;;;;;;;4953312;28;19923;-92
2023/12/08 00:20:47;;;;;;;;;;;;;;;;;;4938356;28;19923;-91
2023/12/08 00:23:13;;;;;;;;;;;;;;;;;;4941860;28;20441;-92
2023/12/08 00:25:39;;;;;;;;;;;;;;;;;;4943855;28;19922;-92
2023/12/08 00:28:05;;;;;;;;;;;;;;;;;;4936053;29;20291;-91
2023/12/08 00:30:31;;;;;;;;;;;;;;;;;;4940716;28;19922;-91
2023/12/08 00:32:57;;;;;;;;;;;;;;;;;;4939421;29;20394;-92
2023/12/08 00:35:22;;;;;;;;;;;;;;;;;;4942603;29;19914;-91
2023/12/08 00:37:48;;;;;;;;;;;;;;;;;;4938287;29;19919;-92
2023/12/08 00:40:14;;;;;;;;;;;;;;;;;;4939267;29;19969;-91
2023/12/08 00:42:40;;;;;;;;;;;;;;;;;;4939854;29;19922;-91
2023/12/08 00:45:06;;;;;;;;;;;;;;;;;;4940839;29;19914;-92
2023/12/08 00:47:32;;;;;;;;;;;;;;;;;;4951339;28;20005;-92
2023/12/08 00:49:58;;;;;;;;;;;;;;;;;;4938955;28;19919;-91
2023/12/08 00:52:24;;;;;;;;;;;;;;;;;;4937392;28;19930;-92
2023/12/08 00:54:50;;;;;;;;;;;;;;;;;;4949612;28;19954;-92
2023/12/08 00:57:16;;;;;;;;;;;;;;;;;;4949755;28;19914;-92
2023/12/08 00:59:42;;;;;;;;;;;;;;;;;;4934386;29;20831;-92
2023/12/08 01:02:08;;;;;;;;;;;;;;;;;;4940857;28;20048;-92
2023/12/08 01:04:34;;;;;;;;;;;;;;;;;;4955041;28;20065;-92
2023/12/08 01:06:59;;;;;;;;;;;;;;;;;;4941409;28;20005;-92
2023/12/08 01:09:26;;;;;;;;;;;;;;;;;;4942986;28;20466;-92
2023/12/08 01:11:52;;;;;;;;;;;;;;;;;;4944466;29;19942;-92
2023/12/08 01:14:18;;;;;;;;;;;;;;;;;;4940258;28;19947;-93
2023/12/08 01:16:44;;;;;;;;;;;;;;;;;;4937581;29;19919;-92
2023/12/08 01:19:10;;;;;;;;;;;;;;;;;;4942569;28;19914;-94
2023/12/08 01:21:36;;;;;;;;;;;;;;;;;;4940957;29;19954;-92
2023/12/08 01:24:02;;;;;;;;;;;;;;;;;;4940841;28;19918;-92
2023/12/08 01:26:28;;;;;;;;;;;;;;;;;;4949171;28;19911;-92
2023/12/08 01:28:55;;;;;;;;;;;;;;;;;;4951216;28;19915;-92
2023/12/08 01:31:21;;;;;;;;;;;;;;;;;;4944175;29;19915;-93
2023/12/08 01:33:47;;;;;;;;;;;;;;;;;;4949243;28;19921;-93
2023/12/08 01:36:13;;;;;;;;;;;;;;;;;;4954226;28;19919;-93
2023/12/08 01:38:39;;;;;;;;;;;;;;;;;;4955867;28;19980;-93
2023/12/08 01:41:05;;;;;;;;;;;;;;;;;;4946279;28;19917;-93
2023/12/08 01:43:31;;;;;;;;;;;;;;;;;;4940807;28;19929;-92
2023/12/08 01:45:57;;;;;;;;;;;;;;;;;;4941867;28;19962;-93
2023/12/08 01:48:23;;;;;;;;;;;;;;;;;;4942689;28;19950;-93
2023/12/08 01:50:48;;;;;;;;;;;;;;;;;;4956831;28;19918;-92
2023/12/08 01:53:14;;;;;;;;;;;;;;;;;;4941713;28;20343;-92
2023/12/08 01:55:40;;;;;;;;;;;;;;;;;;4940349;28;19915;-93
2023/12/08 01:58:06;;;;;;;;;;;;;;;;;;4941555;28;19922;-93
2023/12/08 02:00:32;;;;;;;;;;;;;;;;;;4933434;28;19915;-93
2023/12/08 02:02:58;;;;;;;;;;;;;;;;;;4936803;28;20394;-92
2023/12/08 02:05:24;;;;;;;;;;;;;;;;;;4933941;28;19923;-90
2023/12/08 02:07:50;;;;;;;;;;;;;;;;;;4948485;28;20021;-93
2023/12/08 02:10:16;;;;;;;;;;;;;;;;;;4935076;28;19918;-93
2023/12/08 02:12:42;;;;;;;;;;;;;;;;;;4937302;29;19974;-92
2023/12/08 02:15:08;;;;;;;;;;;;;;;;;;4935115;29;20350;-93
2023/12/08 02:17:34;;;;;;;;;;;;;;;;;;4954714;28;19994;-94
2023/12/08 02:20:03;;;;;;;;;;;;;;;;;;4938210;28;20299;-92
2023/12/08 02:22:29;;;;;;;;;;;;;;;;;;4950935;28;20371;-93
2023/12/08 02:24:55;;;;;;;;;;;;;;;;;;4936509;28;19978;-92
2023/12/08 02:27:21;;;;;;;;;;;;;;;;;;4951298;28;19914;-93
2023/12/08 02:29:46;;;;;;;;;;;;;;;;;;4935862;28;19922;-93
2023/12/08 02:32:12;;;;;;;;;;;;;;;;;;4944976;28;19915;-92
2023/12/08 02:34:38;;;;;;;;;;;;;;;;;;4937492;28;19918;-92
2023/12/08 02:37:04;;;;;;;;;;;;;;;;;;4950292;28;19973;-92
2023/12/08 02:39:30;;;;;;;;;;;;;;;;;;4934868;28;19923;-93
2023/12/08 02:41:56;;;;;;;;;;;;;;;;;;4935870;28;19933;-92
2023/12/08 02:44:22;;;;;;;;;;;;;;;;;;4937452;28;20370;-91
2023/12/08 02:46:48;;;;;;;;;;;;;;;;;;4937692;28;20001;-93
2023/12/08 02:49:14;;;;;;;;;;;;;;;;;;4938611;29;19922;-92
2023/12/08 02:51:40;;;;;;;;;;;;;;;;;;4937495;28;20371;-93
2023/12/08 02:54:09;;;;;;;;;;;;;;;;;;4933538;29;19972;-93
2023/12/08 02:56:35;;;;;;;;;;;;;;;;;;4935527;29;19925;-93
2023/12/08 02:59:01;;;;;;;;;;;;;;;;;;4935731;28;19914;-93
2023/12/08 03:01:27;;;;;;;;;;;;;;;;;;4938880;28;19926;-91
2023/12/08 03:03:52;;;;;;;;;;;;;;;;;;4937346;28;19966;-92
2023/12/08 03:06:18;;;;;;;;;;;;;;;;;;4943276;28;19957;-92
2023/12/08 03:08:47;;;;;;;;;;;;;;;;;;4938625;28;19961;-92
2023/12/08 03:11:13;;;;;;;;;;;;;;;;;;4953191;28;19961;-92
2023/12/08 03:13:39;;;;;;;;;;;;;;;;;;4932846;28;20034;-92
2023/12/08 03:16:05;;;;;;;;;;;;;;;;;;4935596;28;20377;-92
2023/12/08 03:18:30;;;;;;;;;;;;;;;;;;4940306;28;19921;-92
2023/12/08 03:20:56;;;;;;;;;;;;;;;;;;4950608;28;19952;-93
2023/12/08 03:23:22;;;;;;;;;;;;;;;;;;4947066;28;19945;-92
2023/12/08 03:25:48;;;;;;;;;;;;;;;;;;4933008;28;20422;-92
2023/12/08 03:28:14;;;;;;;;;;;;;;;;;;4935611;29;20121;-92
2023/12/08 03:30:40;;;;;;;;;;;;;;;;;;4934136;28;20017;-92
2023/12/08 03:33:06;;;;;;;;;;;;;;;;;;4923500;28;20741;-91
2023/12/08 03:35:32;;;;;;;;;;;;;;;;;;4947618;28;19929;-92
2023/12/08 03:37:58;;;;;;;;;;;;;;;;;;4931989;28;19929;-93
2023/12/08 03:40:24;;;;;;;;;;;;;;;;;;4928519;28;19918;-93
2023/12/08 03:42:50;;;;;;;;;;;;;;;;;;4933741;28;20370;-92
2023/12/08 03:45:16;;;;;;;;;;;;;;;;;;4928039;28;19962;-92
2023/12/08 03:47:42;;;;;;;;;;;;;;;;;;4936055;28;19922;-92
2023/12/08 03:50:07;;;;;;;;;;;;;;;;;;4934551;29;19949;-92
2023/12/08 03:52:33;;;;;;;;;;;;;;;;;;4934775;28;20371;-92
2023/12/08 03:54:59;;;;;;;;;;;;;;;;;;4931608;29;19961;-92
2023/12/08 03:57:25;;;;;;;;;;;;;;;;;;4944185;28;20018;-92
2023/12/08 03:59:51;;;;;;;;;;;;;;;;;;4933526;28;19981;-92
2023/12/08 04:02:17;;;;;;;;;;;;;;;;;;4945167;28;19922;-92
2023/12/08 04:04:43;;;;;;;;;;;;;;;;;;4928880;28;19911;-91
2023/12/08 04:07:09;;;;;;;;;;;;;;;;;;4933746;29;20018;-92
2023/12/08 04:09:35;;;;;;;;;;;;;;;;;;4929609;28;19918;-92
2023/12/08 04:12:01;;;;;;;;;;;;;;;;;;4929888;28;19954;-91
2023/12/08 04:14:27;;;;;;;;;;;;;;;;;;4928350;28;20381;-92
2023/12/08 04:16:53;;;;;;;;;;;;;;;;;;4926742;28;19911;-93
2023/12/08 04:19:19;;;;;;;;;;;;;;;;;;4930137;28;19914;-93
2023/12/08 04:21:45;;;;;;;;;;;;;;;;;;4928698;29;19926;-92
2023/12/08 04:24:11;;;;;;;;;;;;;;;;;;4928160;28;20297;-93
2023/12/08 04:26:38;;;;;;;;;;;;;;;;;;4931349;28;20422;-93
2023/12/08 04:29:04;;;;;;;;;;;;;;;;;;4932148;28;19962;-92
2023/12/08 04:31:30;;;;;;;;;;;;;;;;;;4933245;28;19925;-92
2023/12/08 04:33:55;;;;;;;;;;;;;;;;;;4949838;28;19911;-92
2023/12/08 04:36:21;;;;;;;;;;;;;;;;;;4942459;28;19953;-91
2023/12/08 04:38:47;;;;;;;;;;;;;;;;;;4937911;28;19918;-91
2023/12/08 04:41:13;;;;;;;;;;;;;;;;;;4945061;28;19918;-92
2023/12/08 04:43:39;;;;;;;;;;;;;;;;;;4937722;28;19923;-91
2023/12/08 04:46:05;;;;;;;;;;;;;;;;;;4933990;29;19918;-91
2023/12/08 04:48:31;;;;;;;;;;;;;;;;;;4941854;28;19910;-91
2023/12/08 04:51:00;;;;;;;;;;;;;;;;;;4948232;28;19929;-92
2023/12/08 04:53:26;;;;;;;;;;;;;;;;;;4933261;28;20363;-92
2023/12/08 04:55:52;;;;;;;;;;;;;;;;;;4939542;28;19945;-91
2023/12/08 04:58:18;;;;;;;;;;;;;;;;;;4935803;28;19918;-91
2023/12/08 05:00:44;;;;;;;;;;;;;;;;;;4936703;28;20033;-92
2023/12/08 05:03:10;;;;;;;;;;;;;;;;;;4936003;28;19922;-92
2023/12/08 05:05:35;;;;;;;;;;;;;;;;;;4936119;28;19958;-93
2023/12/08 05:08:01;;;;;;;;;;;;;;;;;;4935546;28;19918;-93
2023/12/08 05:10:27;;;;;;;;;;;;;;;;;;4938264;29;20385;-92
2023/12/08 05:12:53;;;;;;;;;;;;;;;;;;4934939;28;20013;-92
2023/12/08 05:15:19;;;;;;;;;;;;;;;;;;4935986;29;19926;-92
2023/12/08 05:17:45;;;;;;;;;;;;;;;;;;4936892;28;20795;-91
2023/12/08 05:20:12;;;;;;;;;;;;;;;;;;4941038;28;19918;-91
2023/12/08 05:22:39;;;;;;;;;;;;;;;;;;4939877;28;19950;-91
2023/12/08 05:25:05;;;;;;;;;;;;;;;;;;4935886;28;20404;-91
2023/12/08 05:27:31;;;;;;;;;;;;;;;;;;4952473;28;20000;-91
2023/12/08 05:29:56;;;;;;;;;;;;;;;;;;4949322;28;19915;-90
2023/12/08 05:32:23;;;;;;;;;;;;;;;;;;4937593;28;19922;-91
2023/12/08 05:34:49;;;;;;;;;;;;;;;;;;4932769;28;20275;-91
2023/12/08 05:37:15;;;;;;;;;;;;;;;;;;4948838;28;19923;-91
2023/12/08 05:39:41;;;;;;;;;;;;;;;;;;4936859;28;20446;-91
2023/12/08 05:42:07;;;;;;;;;;;;;;;;;;4946109;28;19927;-91
2023/12/08 05:44:33;;;;;;;;;;;;;;;;;;4935526;28;19914;-91
2023/12/08 05:46:59;;;;;;;;;;;;;;;;;;4934508;28;19918;-91
2023/12/08 05:49:25;;;;;;;;;;;;;;;;;;4933668;28;20062;-90
2023/12/08 05:51:52;;;;;;;;;;;;;;;;;;4931828;28;19997;-90
2023/12/08 05:54:18;;;;;;;;;;;;;;;;;;4930299;28;21071;-90
2023/12/08 05:56:44;;;;;;;;;;;;;;;;;;4931252;28;19923;-90
2023/12/08 05:59:09;;;;;;;;;;;;;;;;;;4931450;29;19957;-90
2023/12/08 06:01:35;;;;;;;;;;;;;;;;;;4926427;28;19976;-90
2023/12/08 06:04:01;;;;;;;;;;;;;;;;;;4936421;28;19919;-91
2023/12/08 06:06:27;;;;;;;;;;;;;;;;;;4936314;29;19929;-91
2023/12/08 06:08:53;;;;;;;;;;;;;;;;;;4939712;28;19919;-91
2023/12/08 06:11:19;;;;;;;;;;;;;;;;;;4936552;28;20297;-91
2023/12/08 06:13:45;;;;;;;;;;;;;;;;;;4936299;28;20366;-91
2023/12/08 06:16:11;;;;;;;;;;;;;;;;;;4936662;28;19997;-91
2023/12/08 06:18:37;;;;;;;;;;;;;;;;;;4936157;29;19921;-92
2023/12/08 06:21:04;;;;;;;;;;;;;;;;;;4935636;28;19952;-90
2023/12/08 06:23:30;;;;;;;;;;;;;;;;;;4935514;28;19943;-90
2023/12/08 06:25:55;;;;;;;;;;;;;;;;;;4928120;28;20282;-89
2023/12/08 06:28:21;;;;;;;;;;;;;;;;;;4932887;28;19923;-91
2023/12/08 06:30:47;;;;;;;;;;;;;;;;;;4928593;29;19921;-91
2023/12/08 06:33:13;;;;;;;;;;;;;;;;;;4936349;28;19977;-90
2023/12/08 06:35:39;;;;;;;;;;;;;;;;;;4932023;29;19918;-90
2023/12/08 06:38:05;;;;;;;;;;;;;;;;;;4935263;28;19914;-90
2023/12/08 06:40:31;;;;;;;;;;;;;;;;;;4933345;29;19915;-89
2023/12/08 06:42:57;;;;;;;;;;;;;;;;;;4934146;29;19921;-90
2023/12/08 06:45:23;;;;;;;;;;;;;;;;;;4932905;28;19914;-90
2023/12/08 06:47:49;;;;;;;;;;;;;;;;;;4933529;28;19915;-91
2023/12/08 06:50:15;;;;;;;;;;;;;;;;;;4937876;29;19918;-89
2023/12/08 06:52:41;;;;;;;;;;;;;;;;;;4948034;28;19936;-90
2023/12/08 06:55:07;;;;;;;;;;;;;;;;;;4935125;28;19981;-91
2023/12/08 06:57:32;;;;;;;;;;;;;;;;;;4929216;28;20341;-91
2023/12/08 06:59:58;;;;;;;;;;;;;;;;;;4935229;28;19922;-91
2023/12/08 07:02:25;;;;;;;;;;;;;;;;;;4933447;28;19922;-90
2023/12/08 07:04:50;;;;;;;;;;;;;;;;;;4935013;28;20000;-90
2023/12/08 07:07:17;;;;;;;;;;;;;;;;;;4932507;28;20021;-90
2023/12/08 07:09:43;;;;;;;;;;;;;;;;;;4928885;28;19986;-91
2023/12/08 07:12:08;;;;;;;;;;;;;;;;;;4940955;28;19922;-91
2023/12/08 07:14:34;;;;;;;;;;;;;;;;;;4929311;28;19974;-90
2023/12/08 07:17:00;;;;;;;;;;;;;;;;;;4950848;28;19915;-91
2023/12/08 07:30:03;;;;;;;;;;;;;;;;;;6193906;22;2086597;-90
2023/12/08 07:32:29;;;;;;;;;;;;;;;;;;6280228;22;19914;-90
2023/12/08 07:34:55;;;;;;;;;;;;;;;;;;6253789;22;19914;-91
2023/12/08 07:37:22;;;;;;;;;;;;;;;;;;6254882;22;19903;-90
2023/12/08 07:39:48;;;;;;;;;;;;;;;;;;6253325;22;19903;-89
2023/12/08 07:42:14;;;;;;;;;;;;;;;;;;6254890;22;19949;-91
2023/12/08 07:44:40;;;;;;;;;;;;;;;;;;6254144;22;20325;-90
2023/12/08 07:47:07;;;;;;;;;;;;;;;;;;6254392;22;20280;-92
2023/12/08 07:49:33;;;;;;;;;;;;;;;;;;6254995;22;20360;-92
2023/12/08 07:51:59;;;;;;;;;;;;;;;;;;6254978;22;19904;-92
2023/12/08 07:54:26;;;;;;;;;;;;;;;;;;6254700;22;20383;-92
2023/12/08 07:56:52;;;;;;;;;;;;;;;;;;6254741;22;19903;-91
2023/12/08 07:59:18;;;;;;;;;;;;;;;;;;6254826;22;19996;-92
2023/12/08 08:01:44;;;;;;;;;;;;;;;;;;6281482;22;20405;-91
2023/12/08 08:04:10;;;;;;;;;;;;;;;;;;6253308;22;19973;-92
2023/12/08 08:06:36;;;;;;;;;;;;;;;;;;6252585;22;19903;-90
2023/12/08 08:09:03;;;;;;;;;;;;;;;;;;6253719;22;19907;-91
2023/12/08 08:11:29;;;;;;;;;;;;;;;;;;6254704;22;19904;-90
2023/12/08 08:13:55;;;;;;;;;;;;;;;;;;6254105;22;19907;-91
2023/12/08 08:16:20;;;;;;;;;;;;;;;;;;6253301;22;19907;-91
2023/12/08 08:18:46;;;;;;;;;;;;;;;;;;6253951;22;20329;-92
2023/12/08 08:21:12;;;;;;;;;;;;;;;;;;6253386;22;19914;-91
2023/12/08 08:23:41;;;;;;;;;;;;;;;;;;6253361;22;19977;-92
2023/12/08 08:26:06;;;;;;;;;;;;;;;;;;6254889;22;19982;-90
2023/12/08 08:28:32;;;;;;;;;;;;;;;;;;6252836;22;19946;-90
2023/12/08 08:30:58;;;;;;;;;;;;;;;;;;6245694;22;20368;-91
2023/12/08 08:33:24;;;;;;;;;;;;;;;;;;6246396;22;19903;-91
2023/12/08 08:35:51;;;;;;;;;;;;;;;;;;6246532;22;19908;-91
2023/12/08 08:38:17;;;;;;;;;;;;;;;;;;6273500;22;19993;-90
2023/12/08 08:40:43;;;;;;;;;;;;;;;;;;6245996;22;19980;-91
2023/12/08 08:43:09;;;;;;;;;;;;;;;;;;6247267;22;20755;-91
2023/12/08 08:45:35;;;;;;;;;;;;;;;;;;6245571;22;19904;-91
2023/12/08 08:48:01;;;;;;;;;;;;;;;;;;6247253;22;19911;-91
2023/12/08 08:50:27;;;;;;;;;;;;;;;;;;6246235;22;20322;-90
2023/12/08 08:52:53;;;;;;;;;;;;;;;;;;6246567;22;19907;-91
2023/12/08 08:55:19;;;;;;;;;;;;;;;;;;6246004;22;19910;-90
2023/12/08 08:57:48;;;;;;;;;;;;;;;;;;6245755;22;20234;-90
2023/12/08 09:00:18;;;;;;;;;;;;;;;;;;6246397;22;19911;-89
2023/12/08 09:02:45;;;;;;;;;;;;;;;;;;6245129;22;19907;-91
2023/12/08 09:05:11;;;;;;;;;;;;;;;;;;6245117;22;19903;-90
2023/12/08 09:07:37;;;;;;;;;;;;;;;;;;6246415;22;19957;-91
2023/12/08 09:10:03;;;;;;;;;;;;;;;;;;6245701;22;19935;-90
2023/12/08 09:12:29;;;;;;;;;;;;;;;;;;6273894;22;19910;-90
2023/12/08 09:14:55;;;;;;;;;;;;;;;;;;6245825;22;19914;-90
2023/12/08 09:17:24;;;;;;;;;;;;;;;;;;6245776;22;19903;-90
2023/12/08 09:19:50;;;;;;;;;;;;;;;;;;6271778;22;19912;-90
2023/12/08 09:22:16;;;;;;;;;;;;;;;;;;6273734;22;19903;-90
2023/12/08 09:24:42;;;;;;;;;;;;;;;;;;6245369;22;19907;-91
2023/12/08 09:27:09;;;;;;;;;;;;;;;;;;6246540;22;19907;-90
2023/12/08 09:29:35;;;;;;;;;;;;;;;;;;6245323;22;19951;-91
2023/12/08 09:32:01;;;;;;;;;;;;;;;;;;6245580;22;19915;-90
2023/12/08 09:34:27;;;;;;;;;;;;;;;;;;6246892;22;19914;-90
2023/12/08 09:36:54;;;;;;;;;;;;;;;;;;6245656;22;19930;-91
2023/12/08 09:39:20;;;;;;;;;;;;;;;;;;6245860;22;19954;-91
2023/12/08 09:41:46;;;;;;;;;;;;;;;;;;6244997;22;19903;-90
2023/12/08 09:44:15;;;;;;;;;;;;;;;;;;6245501;22;19907;-90
2023/12/08 09:46:41;;;;;;;;;;;;;;;;;;6244268;22;19942;-90
2023/12/08 09:49:07;;;;;;;;;;;;;;;;;;6246851;22;19907;-90
2023/12/08 09:51:33;;;;;;;;;;;;;;;;;;6245888;22;19903;-90
2023/12/08 09:53:59;;;;;;;;;;;;;;;;;;6246235;22;19907;-90
2023/12/08 09:56:24;;;;;;;;;;;;;;;;;;6245322;22;19998;-90
2023/12/08 09:58:50;;;;;;;;;;;;;;;;;;6245769;22;19911;-90
2023/12/08 10:01:17;;;;;;;;;;;;;;;;;;6244972;22;19982;-90
2023/12/08 10:03:43;;;;;;;;;;;;;;;;;;6245021;22;19934;-90
2023/12/08 10:06:09;;;;;;;;;;;;;;;;;;6245102;22;20296;-91
2023/12/08 10:08:35;;;;;;;;;;;;;;;;;;6245093;22;19903;-91
2023/12/08 10:11:00;;;;;;;;;;;;;;;;;;6245561;22;19961;-91
2023/12/08 10:13:28;;;;;;;;;;;;;;;;;;6245202;22;19907;-90
2023/12/08 10:15:53;;;;;;;;;;;;;;;;;;6245052;22;20261;-91
2023/12/08 10:18:19;;;;;;;;;;;;;;;;;;6245431;22;19907;-91
2023/12/08 10:20:46;;;;;;;;;;;;;;;;;;6245970;22;19949;-91
2023/12/08 10:23:11;;;;;;;;;;;;;;;;;;6245477;22;19910;-92
2023/12/08 10:25:37;;;;;;;;;;;;;;;;;;6245514;22;19907;-91
2023/12/08 10:28:03;;;;;;;;;;;;;;;;;;6245938;22;20340;-91
2023/12/08 10:30:33;;;;;;;;;;;;;;;;;;6246021;22;19911;-91
2023/12/08 10:32:59;;;;;;;;;;;;;;;;;;6246276;22;19903;-91
2023/12/08 10:35:25;;;;;;;;;;;;;;;;;;6245023;22;19930;-91
2023/12/08 10:37:51;;;;;;;;;;;;;;;;;;6246055;22;19914;-91
2023/12/08 10:40:17;;;;;;;;;;;;;;;;;;6244666;22;19910;-91
2023/12/08 10:42:43;;;;;;;;;;;;;;;;;;6245672;22;20210;-91
2023/12/08 10:45:13;;;;;;;;;;;;;;;;;;6245149;22;19985;-91
2023/12/08 10:47:39;;;;;;;;;;;;;;;;;;6245664;22;19907;-91
2023/12/08 10:50:05;;;;;;;;;;;;;;;;;;6245873;22;19908;-91
2023/12/08 10:52:30;;;;;;;;;;;;;;;;;;6246369;22;19969;-91
2023/12/08 10:54:56;;;;;;;;;;;;;;;;;;6243707;22;19949;-91
2023/12/08 10:57:22;;;;;;;;;;;;;;;;;;6246301;22;19911;-91
2023/12/08 10:59:48;;;;;;;;;;;;;;;;;;6244532;22;19915;-91
2023/12/08 11:02:17;;;;;;;;;;;;;;;;;;6245596;22;19973;-91
2023/12/08 11:04:43;;;;;;;;;;;;;;;;;;6243642;22;19903;-91
2023/12/08 11:07:09;;;;;;;;;;;;;;;;;;6244991;22;19914;-91
2023/12/08 11:09:35;;;;;;;;;;;;;;;;;;6244876;22;19986;-91
2023/12/08 11:12:04;;;;;;;;;;;;;;;;;;6245910;22;19914;-91
2023/12/08 11:14:32;;;;;;;;;;;;;;;;;;6243932;22;19912;-91
2023/12/08 11:16:58;;;;;;;;;;;;;;;;;;6245059;22;19911;-91
2023/12/08 11:19:24;;;;;;;;;;;;;;;;;;6244765;22;19908;-90
2023/12/08 11:21:51;;;;;;;;;;;;;;;;;;6244789;22;20348;-91
2023/12/08 11:24:17;;;;;;;;;;;;;;;;;;6245266;22;19904;-91
2023/12/08 11:26:43;;;;;;;;;;;;;;;;;;6245639;22;19907;-91
2023/12/08 11:29:09;;;;;;;;;;;;;;;;;;6239060;23;19916;-91
2023/12/08 11:31:35;;;;;;;;;;;;;;;;;;6240622;23;19982;-91
2023/12/08 11:34:01;;;;;;;;;;;;;;;;;;6240096;23;19914;-91
2023/12/08 11:36:28;;;;;;;;;;;;;;;;;;6240066;23;19911;-91
2023/12/08 11:38:55;;;;;;;;;;;;;;;;;;6239852;23;19911;-91
2023/12/08 11:41:21;;;;;;;;;;;;;;;;;;6240406;23;19907;-91
2023/12/08 11:43:48;;;;;;;;;;;;;;;;;;6240242;23;20172;-91
2023/12/08 11:46:14;;;;;;;;;;;;;;;;;;6239040;23;20252;-91
2023/12/08 11:48:40;;;;;;;;;;;;;;;;;;6240253;23;19931;-91
2023/12/08 11:51:07;;;;;;;;;;;;;;;;;;6240482;23;19946;-91
2023/12/08 11:53:36;;;;;;;;;;;;;;;;;;6240450;23;19930;-91
2023/12/08 11:56:02;;;;;;;;;;;;;;;;;;6240128;23;20245;-91
2023/12/08 11:58:28;;;;;;;;;;;;;;;;;;6240929;23;19919;-91
2023/12/08 12:00:56;;;;;;;;;;;;;;;;;;6239753;23;19907;-91
2023/12/08 12:03:24;;;;;;;;;;;;;;;;;;6240292;23;19911;-91
2023/12/08 12:05:50;;;;;;;;;;;;;;;;;;6239919;23;19911;-91
2023/12/08 12:08:18;;;;;;;;;;;;;;;;;;6242321;23;20242;-91
2023/12/08 12:10:44;;;;;;;;;;;;;;;;;;6241708;23;20285;-91
2023/12/08 12:13:12;;;;;;;;;;;;;;;;;;6242227;23;19911;-91
2023/12/08 12:15:38;;;;;;;;;;;;;;;;;;6241999;23;19903;-91
2023/12/08 12:18:04;;;;;;;;;;;;;;;;;;6241370;23;20471;-92
2023/12/08 12:20:30;;;;;;;;;;;;;;;;;;6240942;23;20456;-91
2023/12/08 12:22:56;;;;;;;;;;;;;;;;;;6242395;23;19910;-92
2023/12/08 12:25:22;;;;;;;;;;;;;;;;;;6240665;23;20330;-91
2023/12/08 12:27:48;;;;;;;;;;;;;;;;;;6243055;22;19954;-91
2023/12/08 12:30:15;;;;;;;;;;;;;;;;;;6246555;22;19921;-92
2023/12/08 12:32:41;;;;;;;;;;;;;;;;;;6246940;22;19907;-91
2023/12/08 12:35:07;;;;;;;;;;;;;;;;;;6246833;22;19914;-91
2023/12/08 12:37:33;;;;;;;;;;;;;;;;;;6247105;22;19915;-91
2023/12/08 12:39:59;;;;;;;;;;;;;;;;;;6245516;22;19904;-91
2023/12/08 12:42:25;;;;;;;;;;;;;;;;;;6247149;22;19961;-91
2023/12/08 12:44:52;;;;;;;;;;;;;;;;;;6245700;22;19956;-91
2023/12/08 12:47:18;;;;;;;;;;;;;;;;;;6246492;22;19931;-91
2023/12/08 12:49:45;;;;;;;;;;;;;;;;;;6247074;22;19907;-91
2023/12/08 12:52:11;;;;;;;;;;;;;;;;;;6245579;22;20652;-91
2023/12/08 12:54:38;;;;;;;;;;;;;;;;;;6246255;22;19907;-91
2023/12/08 12:57:04;;;;;;;;;;;;;;;;;;6247045;22;20245;-91
2023/12/08 12:59:32;;;;;;;;;;;;;;;;;;6273134;22;19915;-91
2023/12/08 13:01:59;;;;;;;;;;;;;;;;;;6245790;22;19903;-91
2023/12/08 13:04:24;;;;;;;;;;;;;;;;;;6244690;22;19922;-91
2023/12/08 13:06:50;;;;;;;;;;;;;;;;;;6247189;22;19911;-91
2023/12/08 13:09:16;;;;;;;;;;;;;;;;;;6246810;22;19937;-91
2023/12/08 13:11:42;;;;;;;;;;;;;;;;;;6245645;22;19903;-91
2023/12/08 13:14:08;;;;;;;;;;;;;;;;;;6246633;22;19903;-91
2023/12/08 13:16:35;;;;;;;;;;;;;;;;;;6245286;22;19904;-91
2023/12/08 13:19:01;;;;;;;;;;;;;;;;;;6246556;22;19997;-91
2023/12/08 13:21:27;;;;;;;;;;;;;;;;;;6245198;22;19911;-91
2023/12/08 13:23:53;;;;;;;;;;;;;;;;;;6246133;22;20333;-91
2023/12/08 13:26:19;;;;;;;;;;;;;;;;;;6246848;22;19904;-91
2023/12/08 13:28:45;;;;;;;;;;;;;;;;;;6241575;23;19972;-91
2023/12/08 13:31:11;;;;;;;;;;;;;;;;;;6239877;23;19912;-91
2023/12/08 13:33:37;;;;;;;;;;;;;;;;;;6241036;23;19914;-91
2023/12/08 13:36:02;;;;;;;;;;;;;;;;;;6241587;23;20318;-90
2023/12/08 13:38:28;;;;;;;;;;;;;;;;;;6240904;23;19907;-91
2023/12/08 13:40:54;;;;;;;;;;;;;;;;;;6241361;23;19913;-91
2023/12/08 13:43:21;;;;;;;;;;;;;;;;;;6241378;23;19912;-91
2023/12/08 13:45:47;;;;;;;;;;;;;;;;;;6240954;23;19904;-91
2023/12/08 13:48:16;;;;;;;;;;;;;;;;;;6240559;23;19915;-91
2023/12/08 13:50:42;;;;;;;;;;;;;;;;;;6241635;23;20137;-91
2023/12/08 13:53:08;;;;;;;;;;;;;;;;;;6241109;23;19914;-92
2023/12/08 13:55:33;;;;;;;;;;;;;;;;;;6243320;23;19908;-91
2023/12/08 13:57:59;;;;;;;;;;;;;;;;;;6241077;23;19922;-91
2023/12/08 14:00:26;;;;;;;;;;;;;;;;;;6241382;23;19915;-91
2023/12/08 14:02:52;;;;;;;;;;;;;;;;;;6240068;23;19910;-91
2023/12/08 14:05:18;;;;;;;;;;;;;;;;;;6239830;23;19904;-91
2023/12/08 14:07:44;;;;;;;;;;;;;;;;;;6240536;23;19923;-91
2023/12/08 14:10:11;;;;;;;;;;;;;;;;;;6240228;23;19919;-91
2023/12/08 14:12:37;;;;;;;;;;;;;;;;;;6241360;23;19927;-91
2023/12/08 14:15:04;;;;;;;;;;;;;;;;;;6239419;23;19911;-92
2023/12/08 14:17:30;;;;;;;;;;;;;;;;;;6241309;23;19957;-91
2023/12/08 14:19:56;;;;;;;;;;;;;;;;;;6241422;23;19982;-91
2023/12/08 14:22:22;;;;;;;;;;;;;;;;;;6241528;23;19938;-92
2023/12/08 14:24:49;;;;;;;;;;;;;;;;;;6239978;23;19979;-91
2023/12/08 14:27:15;;;;;;;;;;;;;;;;;;6240418;23;19918;-91
2023/12/08 14:29:40;;;;;;;;;;;;;;;;;;6239393;23;19923;-91
2023/12/08 14:32:06;;;;;;;;;;;;;;;;;;6240834;23;19903;-91
2023/12/08 14:34:32;;;;;;;;;;;;;;;;;;6240887;23;20381;-91
2023/12/08 14:36:58;;;;;;;;;;;;;;;;;;6240630;23;19904;-91
2023/12/08 14:39:24;;;;;;;;;;;;;;;;;;6239917;23;19908;-91
2023/12/08 14:41:50;;;;;;;;;;;;;;;;;;6239044;23;19935;-91
2023/12/08 14:44:16;;;;;;;;;;;;;;;;;;6240643;23;19908;-91
2023/12/08 14:46:48;;;;;;;;;;;;;;;;;;6239852;23;19903;-91
2023/12/08 14:49:16;;;;;;;;;;;;;;;;;;6240871;23;19910;-90
2023/12/08 14:51:42;;;;;;;;;;;;;;;;;;6241248;23;19988;-91
2023/12/08 14:54:08;;;;;;;;;;;;;;;;;;6240408;23;19935;-91
2023/12/08 14:56:34;;;;;;;;;;;;;;;;;;6240200;23;19983;-91
2023/12/08 14:59:00;;;;;;;;;;;;;;;;;;6240525;23;19919;-90
2023/12/08 15:01:25;;;;;;;;;;;;;;;;;;6241376;23;19911;-91
2023/12/08 15:03:52;;;;;;;;;;;;;;;;;;6238916;23;19904;-91
2023/12/08 15:06:17;;;;;;;;;;;;;;;;;;6239852;23;19903;-91
2023/12/08 15:08:44;;;;;;;;;;;;;;;;;;6240293;23;19955;-91
2023/12/08 15:11:10;;;;;;;;;;;;;;;;;;6240807;23;19938;-91
2023/12/08 15:13:36;;;;;;;;;;;;;;;;;;6240336;23;19926;-92
2023/12/08 15:16:02;;;;;;;;;;;;;;;;;;6239809;23;19904;-91
2023/12/08 15:18:28;;;;;;;;;;;;;;;;;;6240579;23;20002;-90
2023/12/08 15:20:54;;;;;;;;;;;;;;;;;;6239624;23;19903;-91
2023/12/08 15:23:20;;;;;;;;;;;;;;;;;;6240958;23;19990;-91
2023/12/08 15:25:46;;;;;;;;;;;;;;;;;;6240061;23;20330;-91
2023/12/08 15:28:13;;;;;;;;;;;;;;;;;;6239800;23;20349;-91
2023/12/08 15:30:38;;;;;;;;;;;;;;;;;;6239341;23;19915;-91
2023/12/08 15:33:04;;;;;;;;;;;;;;;;;;6240788;23;19908;-91
2023/12/08 15:35:30;;;;;;;;;;;;;;;;;;6240134;23;19990;-91
2023/12/08 15:37:56;;;;;;;;;;;;;;;;;;6240109;23;20333;-91
2023/12/08 15:40:22;;;;;;;;;;;;;;;;;;6240941;23;19904;-91
2023/12/08 15:42:48;;;;;;;;;;;;;;;;;;6242738;23;19946;-91
2023/12/08 15:45:14;;;;;;;;;;;;;;;;;;6241189;23;19904;-91
2023/12/08 15:47:40;;;;;;;;;;;;;;;;;;6243881;23;19908;-91
2023/12/08 15:50:06;;;;;;;;;;;;;;;;;;6240836;23;20392;-91
2023/12/08 15:52:32;;;;;;;;;;;;;;;;;;6241457;23;19907;-91
2023/12/08 15:54:58;;;;;;;;;;;;;;;;;;6241114;23;19914;-91
2023/12/08 15:57:24;;;;;;;;;;;;;;;;;;6242625;23;19911;-91
2023/12/08 15:59:50;;;;;;;;;;;;;;;;;;6241763;23;20383;-91
2023/12/08 16:02:16;;;;;;;;;;;;;;;;;;6241472;23;19938;-91
2023/12/08 16:04:42;;;;;;;;;;;;;;;;;;6240311;23;19965;-91
2023/12/08 16:07:08;;;;;;;;;;;;;;;;;;6241438;23;20319;-91
2023/12/08 16:09:34;;;;;;;;;;;;;;;;;;6240000;23;20333;-91
2023/12/08 16:12:00;;;;;;;;;;;;;;;;;;6242565;23;19958;-91
2023/12/08 16:14:26;;;;;;;;;;;;;;;;;;6241784;23;20310;-91
2023/12/08 16:16:52;;;;;;;;;;;;;;;;;;6241646;23;19915;-92
2023/12/08 16:19:18;;;;;;;;;;;;;;;;;;6240856;23;19907;-91
2023/12/08 16:21:43;;;;;;;;;;;;;;;;;;6240625;23;19907;-91
2023/12/08 16:24:09;;;;;;;;;;;;;;;;;;6241043;23;19914;-90
2023/12/08 16:26:35;;;;;;;;;;;;;;;;;;6241983;23;19914;-91
2023/12/08 16:29:02;;;;;;;;;;;;;;;;;;6240096;23;19970;-90
2023/12/08 16:31:28;;;;;;;;;;;;;;;;;;6241157;22;20233;-91
2023/12/08 16:33:54;;;;;;;;;;;;;;;;;;6240963;23;20218;-91
2023/12/08 16:36:20;;;;;;;;;;;;;;;;;;6242009;23;19908;-91
2023/12/08 16:38:46;;;;;;;;;;;;;;;;;;6242998;23;19934;-91
2023/12/08 16:41:11;;;;;;;;;;;;;;;;;;6242998;23;19907;-91
2023/12/08 16:43:37;;;;;;;;;;;;;;;;;;6241521;23;20368;-91
2023/12/08 16:46:03;;;;;;;;;;;;;;;;;;6241239;23;19910;-91
2023/12/08 16:48:29;;;;;;;;;;;;;;;;;;6240959;23;19908;-91